Time;durP1;ratioP1;P1;durP2;ratioP2;P2;SDS_P1;SDS_P2;PMS_P1;PMS_P2;Temp;Humidity;BMP_temperature;BMP_pressure;BME280_temperature;BME280_humidity;BME280_pressure;Samples;Min_cycle;Max_cycle;Signal;HPM_P1;HPM_P2
2023/03/01 00:01:44;;;;;;;2.73;1.00;;;0.60;95.50;;;;;;5014038;28;20033;-76
2023/03/01 00:04:10;;;;;;;1.73;0.70;;;0.60;95.60;;;;;;5029186;28;20033;-76
2023/03/01 00:06:37;;;;;;;2.87;1.27;;;0.60;95.60;;;;;;5031531;28;20044;-78
2023/03/01 00:09:04;;;;;;;2.97;1.57;;;0.60;95.80;;;;;;5011360;28;21315;-77
2023/03/01 00:11:32;;;;;;;5.70;1.97;;;0.60;95.80;;;;;;5032670;28;20033;-76
2023/03/01 00:14:04;;;;;;;2.90;1.47;;;0.60;96.00;;;;;;5030487;28;20468;-73
2023/03/01 00:16:38;;;;;;;3.15;0.93;;;0.60;96.10;;;;;;5034335;28;20070;-74
2023/03/01 00:19:06;;;;;;;3.33;1.27;;;0.50;96.20;;;;;;5012343;28;20036;-77
2023/03/01 00:21:33;;;;;;;2.00;1.07;;;0.50;96.30;;;;;;5032356;28;20059;-72
2023/03/01 00:23:59;;;;;;;2.90;1.23;;;0.50;96.40;;;;;;5028982;28;20048;-77
2023/03/01 00:26:27;;;;;;;3.07;0.80;;;0.40;96.50;;;;;;5031787;28;20029;-74
2023/03/01 00:28:55;;;;;;;3.37;1.20;;;0.40;96.50;;;;;;5010189;28;20304;-78
2023/03/01 00:31:23;;;;;;;2.13;1.20;;;0.40;96.60;;;;;;5030490;28;20045;-75
2023/03/01 00:33:56;;;;;;;3.10;1.30;;;0.30;96.60;;;;;;5029945;28;20040;-73
2023/03/01 00:36:25;;;;;;;4.83;2.27;;;0.30;96.80;;;;;;5031555;28;20032;-77
2023/03/01 00:38:52;;;;;;;3.87;2.07;;;0.30;97.30;;;;;;5029218;28;20036;-77
2023/03/01 00:41:20;;;;;;;4.00;1.73;;;0.30;97.40;;;;;;5031396;28;20029;-76
2023/03/01 00:43:46;;;;;;;4.43;1.93;;;0.30;97.40;;;;;;5012502;28;20091;-77
2023/03/01 00:46:15;;;;;;;3.37;1.50;;;0.30;97.50;;;;;;5031014;28;20044;-76
2023/03/01 00:48:41;;;;;;;2.23;1.30;;;0.30;97.60;;;;;;5025470;28;20052;-75
2023/03/01 00:51:26;;;;;;;3.10;1.53;;;0.30;97.60;;;;;;5014519;28;20032;-75
2023/03/01 00:53:56;;;;;;;5.13;2.17;;;0.20;97.80;;;;;;5012051;28;20484;-77
2023/03/01 00:56:22;;;;;;;5.83;1.87;;;0.30;98.10;;;;;;5025904;28;20028;-72
2023/03/01 00:58:49;;;;;;;4.73;2.37;;;0.30;98.10;;;;;;5010104;28;20029;-77
2023/03/01 01:01:19;;;;;;;5.30;2.33;;;0.20;98.30;;;;;;5027598;28;20044;-74
2023/03/01 01:03:54;;;;;;;4.67;2.47;;;0.20;98.30;;;;;;5010836;28;20036;-72
2023/03/01 01:06:26;;;;;;;6.90;2.87;;;0.20;98.50;;;;;;5029433;28;20033;-78
2023/03/01 01:08:54;;;;;;;4.32;2.63;;;0.10;98.50;;;;;;5012538;28;20515;-74
2023/03/01 01:11:21;;;;;;;3.77;1.77;;;0.10;98.70;;;;;;4997001;28;20496;-75
2023/03/01 01:13:49;;;;;;;2.90;1.70;;;0.00;98.80;;;;;;5011604;28;20490;-74
2023/03/01 01:16:17;;;;;;;2.83;1.57;;;0.00;98.80;;;;;;5030826;28;20063;-73
2023/03/01 01:18:44;;;;;;;3.63;1.50;;;0.00;98.90;;;;;;5030512;28;20037;-75
2023/03/01 01:21:14;;;;;;;4.03;1.17;;;-0.10;98.90;;;;;;5014527;28;20066;-77
2023/03/01 01:23:41;;;;;;;4.77;2.33;;;-0.10;99.00;;;;;;5010832;28;20040;-76
2023/03/01 01:26:11;;;;;;;3.70;2.00;;;-0.20;99.20;;;;;;5014493;28;20500;-76
2023/03/01 01:28:38;;;;;;;3.87;1.57;;;-0.20;99.40;;;;;;5027231;28;20033;-75
2023/03/01 01:31:05;;;;;;;3.07;1.73;;;-0.20;99.40;;;;;;5030149;28;20041;-76
2023/03/01 01:33:31;;;;;;;5.07;2.47;;;-0.20;99.50;;;;;;5013504;28;20036;-76
2023/03/01 01:35:58;;;;;;;3.00;1.70;;;-0.30;99.60;;;;;;5029706;28;20048;-74
2023/03/01 01:38:25;;;;;;;2.90;1.73;;;-0.30;99.70;;;;;;5026699;28;20044;-78
2023/03/01 01:40:51;;;;;;;4.10;2.20;;;-0.30;99.80;;;;;;5012884;28;20036;-74
2023/03/01 01:43:28;;;;;;;4.73;3.50;;;-0.40;99.90;;;;;;4995025;28;20281;-76
2023/03/01 01:46:03;;;;;;;5.10;2.47;;;-0.40;99.90;;;;;;5031454;28;20033;-76
2023/03/01 01:48:41;;;;;;;4.10;2.80;;;-0.40;99.90;;;;;;5010425;28;20038;-76
2023/03/01 01:51:14;;;;;;;4.83;3.23;;;-0.40;99.90;;;;;;5029952;28;20059;-72
2023/03/01 01:53:45;;;;;;;5.23;2.67;;;-0.40;99.90;;;;;;5028064;28;20044;-77
2023/03/01 01:56:14;;;;;;;5.43;3.63;;;-0.40;99.90;;;;;;5010931;28;20041;-77
2023/03/01 01:58:43;;;;;;;5.83;3.33;;;-0.40;99.90;;;;;;5027122;28;20037;-77
2023/03/01 02:01:10;;;;;;;6.30;3.43;;;-0.40;99.90;;;;;;5010517;28;20039;-75
2023/03/01 02:03:42;;;;;;;5.23;3.10;;;-0.30;99.90;;;;;;5027292;28;20052;-73
2023/03/01 02:06:19;;;;;;;6.43;3.28;;;-0.30;99.90;;;;;;5012107;28;20167;-77
2023/03/01 02:08:48;;;;;;;4.40;2.47;;;-0.30;99.90;;;;;;5028104;28;20025;-77
2023/03/01 02:11:17;;;;;;;5.33;3.70;;;-0.30;99.90;;;;;;5028368;28;20483;-79
2023/03/01 02:13:46;;;;;;;3.97;2.43;;;-0.30;99.90;;;;;;5028263;28;20317;-77
2023/03/01 02:16:15;;;;;;;8.27;4.37;;;-0.30;99.90;;;;;;5013571;28;20488;-76
2023/03/01 02:18:43;;;;;;;6.33;3.83;;;-0.30;99.90;;;;;;5026613;28;20048;-76
2023/03/01 02:21:34;;;;;;;7.63;3.90;;;-0.30;99.90;;;;;;5030086;28;20051;-74
2023/03/01 02:24:26;;;;;;;6.23;3.47;;;-0.30;99.90;;;;;;5025596;28;20675;-73
2023/03/01 02:26:55;;;;;;;7.80;3.17;;;-0.30;99.90;;;;;;4994033;28;20044;-73
2023/03/01 02:29:26;;;;;;;5.40;4.00;;;-0.30;99.90;;;;;;5024960;28;20041;-75
2023/03/01 02:31:56;;;;;;;6.67;3.40;;;-0.40;99.90;;;;;;5012117;28;20044;-77
2023/03/01 02:34:28;;;;;;;5.93;2.93;;;-0.30;99.90;;;;;;5009315;28;20475;-74
2023/03/01 02:37:00;;;;;;;7.43;4.18;;;-0.30;99.90;;;;;;5027708;28;20033;-76
2023/03/01 02:39:36;;;;;;;4.63;2.63;;;-0.30;99.90;;;;;;4995385;28;21029;-78
2023/03/01 02:42:04;;;;;;;5.53;2.43;;;-0.30;99.90;;;;;;5029476;28;20047;-75
2023/03/01 02:44:30;;;;;;;8.70;4.37;;;-0.40;99.90;;;;;;5024421;28;20056;-76
2023/03/01 02:47:00;;;;;;;7.50;3.20;;;-0.40;99.90;;;;;;5028944;28;20021;-78
2023/03/01 02:49:30;;;;;;;6.30;3.30;;;-0.40;99.90;;;;;;5007444;28;20060;-77
2023/03/01 02:52:28;;;;;;;6.33;2.83;;;-0.40;99.90;;;;;;5010599;28;20041;-76
2023/03/01 02:55:08;;;;;;;6.40;3.17;;;-0.40;99.90;;;;;;5010559;28;20064;-73
2023/03/01 02:57:37;;;;;;;8.33;4.00;;;-0.40;99.90;;;;;;5028305;28;20034;-75
2023/03/01 03:00:18;;;;;;;6.93;3.70;;;-0.40;99.90;;;;;;5026669;28;20040;-76
2023/03/01 03:02:47;;;;;;;4.80;2.87;;;-0.40;99.90;;;;;;5005046;28;20039;-78
2023/03/01 03:05:27;;;;;;;5.30;3.67;;;-0.40;99.90;;;;;;5027972;28;20028;-77
2023/03/01 03:07:58;;;;;;;5.85;3.50;;;-0.40;99.90;;;;;;5042711;28;20040;-75
2023/03/01 03:10:31;;;;;;;5.13;3.43;;;-0.40;99.90;;;;;;5011577;28;20123;-73
2023/03/01 03:13:07;;;;;;;4.85;3.72;;;-0.40;99.90;;;;;;5008600;28;20665;-73
2023/03/01 03:15:38;;;;;;;4.10;2.40;;;-0.40;99.90;;;;;;4997000;28;20052;-72
2023/03/01 03:18:09;;;;;;;4.37;2.70;;;-0.40;99.90;;;;;;5010370;28;20052;-75
2023/03/01 03:20:37;;;;;;;4.67;2.33;;;-0.40;99.90;;;;;;5027433;28;20041;-76
2023/03/01 03:23:04;;;;;;;5.03;2.50;;;-0.50;99.90;;;;;;5027967;28;20033;-76
2023/03/01 03:25:30;;;;;;;5.07;2.87;;;-0.50;99.90;;;;;;5033156;28;20056;-76
2023/03/01 03:27:57;;;;;;;3.80;2.67;;;-0.50;99.90;;;;;;5030408;28;20025;-73
2023/03/01 03:30:27;;;;;;;3.87;1.80;;;-0.50;99.90;;;;;;5029977;28;20653;-77
2023/03/01 03:32:53;;;;;;;12.47;4.73;;;-0.50;99.90;;;;;;5012527;28;20088;-77
2023/03/01 03:35:41;;;;;;;5.80;3.90;;;-0.50;99.90;;;;;;5032804;28;20048;-73
2023/03/01 03:38:15;;;;;;;5.40;3.03;;;-0.50;99.90;;;;;;5010759;28;20033;-73
2023/03/01 03:40:44;;;;;;;4.83;3.03;;;-0.50;99.90;;;;;;5031063;28;20403;-73
2023/03/01 03:43:19;;;;;;;3.07;1.50;;;-0.50;99.90;;;;;;5012274;28;21271;-76
2023/03/01 03:45:47;;;;;;;4.90;3.17;;;-0.50;99.90;;;;;;5031188;28;20037;-78
2023/03/01 03:48:14;;;;;;;5.27;2.43;;;-0.50;99.90;;;;;;5030315;28;20036;-78
2023/03/01 03:50:41;;;;;;;4.77;2.43;;;-0.50;99.90;;;;;;5028923;28;20048;-75
2023/03/01 03:53:10;;;;;;;5.73;2.90;;;-0.50;99.90;;;;;;5031046;28;20464;-74
2023/03/01 03:55:38;;;;;;;5.50;2.43;;;-0.50;99.90;;;;;;5031676;28;20039;-75
2023/03/01 03:58:08;;;;;;;3.77;2.50;;;-0.60;99.90;;;;;;5029479;28;20028;-74
2023/03/01 04:00:39;;;;;;;2.97;1.60;;;-0.60;99.90;;;;;;5013044;28;20315;-76
2023/03/01 04:03:07;;;;;;;5.27;2.60;;;-0.60;99.90;;;;;;5012706;28;20773;-78
2023/03/01 04:05:34;;;;;;;3.60;1.63;;;-0.70;99.90;;;;;;5030834;28;20029;-78
2023/03/01 04:08:01;;;;;;;4.63;2.97;;;-0.70;99.90;;;;;;5028729;28;20033;-78
2023/03/01 04:10:33;;;;;;;2.87;1.80;;;-0.70;99.90;;;;;;5030120;28;20045;-76
2023/03/01 04:13:00;;;;;;;3.38;2.05;;;-0.70;99.90;;;;;;5033299;28;20045;-77
2023/03/01 04:15:27;;;;;;;4.33;2.70;;;-0.70;99.90;;;;;;5012932;28;20040;-76
2023/03/01 04:17:55;;;;;;;3.00;1.90;;;-0.70;99.90;;;;;;5010683;28;20657;-75
2023/03/01 04:20:24;;;;;;;3.13;1.83;;;-0.60;99.90;;;;;;5030014;28;20033;-77
2023/03/01 04:22:59;;;;;;;5.20;3.00;;;-0.60;99.90;;;;;;5010607;28;20037;-75
2023/03/01 04:25:25;;;;;;;5.73;2.60;;;-0.60;99.90;;;;;;5013755;28;20040;-76
2023/03/01 04:27:52;;;;;;;4.23;2.20;;;-0.60;99.90;;;;;;5025034;28;20049;-72
2023/03/01 04:30:18;;;;;;;4.17;2.50;;;-0.60;99.90;;;;;;5030031;28;20158;-74
2023/03/01 04:32:45;;;;;;;6.27;2.70;;;-0.60;99.90;;;;;;5028951;28;20033;-73
2023/03/01 04:35:11;;;;;;;2.67;1.47;;;-0.60;99.90;;;;;;5027114;28;20709;-76
2023/03/01 04:37:37;;;;;;;6.10;2.40;;;-0.60;99.90;;;;;;4998497;28;20515;-77
2023/03/01 04:40:16;;;;;;;4.90;2.17;;;-0.60;99.90;;;;;;5029628;28;20396;-74
2023/03/01 04:42:42;;;;;;;5.53;2.50;;;-0.60;99.90;;;;;;5011176;28;20034;-78
2023/03/01 04:45:15;;;;;;;3.77;1.97;;;-0.60;99.90;;;;;;5032633;28;20044;-77
2023/03/01 04:47:44;;;;;;;;;;;-0.50;99.90;;;;;;5030337;28;20032;-74
2023/03/01 04:50:12;;;;;;;4.17;2.57;;;-0.50;99.90;;;;;;5010386;28;19921;-76
2023/03/01 04:52:38;;;;;;;4.07;2.67;;;-0.40;99.90;;;;;;5029436;28;20044;-77
2023/03/01 04:55:05;;;;;;;5.53;2.23;;;-0.50;99.90;;;;;;5029310;28;20040;-77
2023/03/01 04:57:32;;;;;;;4.00;2.40;;;-0.40;99.90;;;;;;5031069;28;20333;-77
2023/03/01 04:59:58;;;;;;;4.90;2.47;;;-0.40;99.90;;;;;;5026571;28;20610;-77
2023/03/01 05:02:25;;;;;;;4.67;2.53;;;-0.50;99.90;;;;;;5031926;28;20040;-75
2023/03/01 05:04:51;;;;;;;5.73;3.23;;;-0.40;99.90;;;;;;5029721;28;20052;-77
2023/03/01 05:07:19;;;;;;;4.80;2.73;;;-0.50;99.90;;;;;;5032001;28;20044;-73
2023/03/01 05:09:48;;;;;;;4.33;2.17;;;-0.50;99.90;;;;;;5027821;28;20475;-76
2023/03/01 05:12:15;;;;;;;3.07;2.07;;;-0.50;99.90;;;;;;5029395;28;20033;-77
2023/03/01 05:14:41;;;;;;;6.50;4.10;;;-0.50;99.90;;;;;;4998810;28;20048;-77
2023/03/01 05:17:08;;;;;;;6.73;3.70;;;-0.50;99.90;;;;;;5015516;28;20036;-72
2023/03/01 05:19:34;;;;;;;7.80;2.70;;;-0.60;99.90;;;;;;4993686;28;20044;-76
2023/03/01 05:22:03;;;;;;;4.67;2.43;;;-0.60;99.90;;;;;;5033145;28;20468;-76
2023/03/01 05:24:32;;;;;;;3.83;1.97;;;-0.60;99.90;;;;;;5027519;28;20043;-72
2023/03/01 05:26:58;;;;;;;3.80;2.43;;;-0.70;99.90;;;;;;5045804;28;20037;-78
2023/03/01 05:29:27;;;;;;;4.20;1.90;;;-0.70;99.90;;;;;;5026989;28;20412;-76
2023/03/01 05:31:59;;;;;;;5.47;2.07;;;-0.70;99.90;;;;;;4996735;28;20412;-74
2023/03/01 05:34:31;;;;;;;3.35;1.63;;;-0.70;99.90;;;;;;5010035;28;20039;-77
2023/03/01 05:36:57;;;;;;;4.15;2.42;;;-0.70;99.90;;;;;;5030820;28;20045;-75
2023/03/01 05:39:26;;;;;;;2.67;1.43;;;-0.70;99.90;;;;;;5026150;28;20040;-73
2023/03/01 05:41:57;;;;;;;3.10;1.30;;;-0.70;99.90;;;;;;5013626;28;20056;-75
2023/03/01 05:44:25;;;;;;;3.73;1.97;;;-0.70;99.90;;;;;;5029707;28;20051;-76
2023/03/01 05:46:52;;;;;;;3.83;1.90;;;-0.70;99.90;;;;;;5027353;28;20044;-78
2023/03/01 05:49:18;;;;;;;4.97;2.40;;;-0.70;99.90;;;;;;5024112;28;20029;-76
2023/03/01 05:51:49;;;;;;;4.23;2.20;;;-0.70;99.90;;;;;;5028068;28;20404;-79
2023/03/01 05:54:17;;;;;;;6.10;2.30;;;-0.60;99.90;;;;;;5025827;28;20693;-81
2023/03/01 05:56:43;;;;;;;5.27;3.10;;;-0.60;99.90;;;;;;5027591;28;20499;-80
2023/03/01 05:59:10;;;;;;;6.87;3.10;;;-0.60;99.90;;;;;;5023679;28;20032;-75
2023/03/01 06:01:37;;;;;;;4.43;2.27;;;-0.60;99.90;;;;;;5010988;28;20047;-79
2023/03/01 06:04:04;;;;;;;4.53;2.37;;;-0.60;99.90;;;;;;5010765;28;20044;-79
2023/03/01 06:06:37;;;;;;;9.00;4.30;;;-0.60;99.90;;;;;;5027978;28;20025;-83
2023/03/01 06:09:04;;;;;;;;;;;-0.60;99.90;;;;;;5009943;28;20029;-75
2023/03/01 06:11:30;;;;;;;8.23;4.33;;;-0.60;99.90;;;;;;5044399;28;19926;-79
2023/03/01 06:13:56;;;;;;;5.80;3.33;;;-0.60;99.90;;;;;;5027053;28;20044;-79
2023/03/01 06:16:22;;;;;;;8.40;3.37;;;-0.60;99.90;;;;;;5027349;28;20044;-77
2023/03/01 06:18:49;;;;;;;4.83;2.40;;;-0.60;99.90;;;;;;5024738;28;20036;-73
2023/03/01 06:21:15;;;;;;;5.67;2.80;;;-0.60;99.90;;;;;;5007175;28;20039;-78
2023/03/01 06:23:41;;;;;;;6.97;3.70;;;-0.50;99.90;;;;;;5026661;28;20394;-80
2023/03/01 06:26:08;;;;;;;6.20;2.43;;;-0.60;99.90;;;;;;4994841;28;20051;-76
2023/03/01 06:28:35;;;;;;;13.87;4.00;;;-0.50;99.90;;;;;;5009537;28;20515;-77
2023/03/01 06:31:02;;;;;;;4.37;2.80;;;-0.60;99.90;;;;;;5026372;28;20048;-78
2023/03/01 06:33:28;;;;;;;4.13;2.93;;;-0.60;99.90;;;;;;5023397;28;20051;-78
2023/03/01 06:35:56;;;;;;;6.47;2.73;;;-0.60;99.90;;;;;;5029235;28;20036;-78
2023/03/01 06:38:24;;;;;;;4.80;2.87;;;-0.60;99.90;;;;;;5006317;28;20033;-73
2023/03/01 06:40:54;;;;;;;5.87;3.37;;;-0.60;99.90;;;;;;5028413;28;20017;-76
2023/03/01 06:43:21;;;;;;;4.60;2.03;;;-0.50;99.90;;;;;;5028573;28;20052;-75
2023/03/01 06:45:47;;;;;;;5.53;3.13;;;-0.50;99.90;;;;;;5012098;28;20041;-75
2023/03/01 06:48:13;;;;;;;4.53;2.67;;;-0.50;99.90;;;;;;4993318;28;20052;-76
2023/03/01 06:50:40;;;;;;;4.53;2.63;;;-0.40;99.90;;;;;;5028659;28;20041;-72
2023/03/01 06:53:06;;;;;;;5.30;2.70;;;-0.40;99.90;;;;;;5029009;28;20511;-72
2023/03/01 06:55:33;;;;;;;3.67;2.80;;;-0.30;99.90;;;;;;5011206;28;20029;-78
2023/03/01 06:58:01;;;;;;;3.13;2.00;;;-0.20;99.90;;;;;;5023684;28;20044;-73
2023/03/01 07:00:28;;;;;;;5.23;2.40;;;-0.10;99.90;;;;;;5027326;28;20032;-77
2023/03/01 07:02:57;;;;;;;3.50;1.77;;;0.00;99.90;;;;;;5010520;28;20032;-78
2023/03/01 07:05:24;;;;;;;4.23;1.93;;;0.10;99.90;;;;;;5024719;28;20029;-76
2023/03/01 07:07:50;;;;;;;4.37;2.50;;;0.10;99.90;;;;;;4991922;28;20559;-74
2023/03/01 07:10:16;;;;;;;3.67;2.37;;;0.20;99.90;;;;;;5011219;28;20388;-79
2023/03/01 07:12:43;;;;;;;4.07;2.10;;;0.30;99.90;;;;;;5027221;28;20044;-73
2023/03/01 07:15:10;;;;;;;4.83;2.50;;;0.40;99.90;;;;;;5010828;28;20061;-77
2023/03/01 07:17:36;;;;;;;5.97;3.00;;;0.50;99.90;;;;;;5026123;28;20672;-74
2023/03/01 07:20:03;;;;;;;5.70;3.03;;;0.60;99.90;;;;;;5027373;28;20047;-79
2023/03/01 07:22:29;;;;;;;6.17;3.07;;;0.70;99.90;;;;;;5011011;28;20033;-72
2023/03/01 07:24:56;;;;;;;6.30;2.53;;;0.80;99.90;;;;;;5028805;28;20423;-72
2023/03/01 07:27:22;;;;;;;7.57;4.10;;;0.90;99.90;;;;;;5029786;28;21224;-78
2023/03/01 07:29:48;;;;;;;5.77;3.50;;;1.00;99.90;;;;;;5026064;28;20033;-77
2023/03/01 07:32:14;;;;;;;11.43;4.40;;;1.10;99.90;;;;;;5012694;28;20056;-75
2023/03/01 07:34:41;;;;;;;7.23;2.80;;;1.20;99.90;;;;;;5025150;28;20032;-75
2023/03/01 07:37:07;;;;;;;5.13;3.33;;;1.40;99.90;;;;;;5009332;28;20040;-75
2023/03/01 07:39:33;;;;;;;11.67;6.27;;;1.40;99.90;;;;;;5022423;28;20036;-75
2023/03/01 07:41:59;;;;;;;8.77;4.20;;;1.60;99.90;;;;;;5030239;28;20033;-76
2023/03/01 07:44:26;;;;;;;6.10;3.97;;;1.70;99.90;;;;;;5008371;28;20047;-76
2023/03/01 07:46:56;;;;;;;6.60;3.37;;;1.80;99.90;;;;;;5028584;28;20052;-77
2023/03/01 07:49:22;;;;;;;4.93;3.33;;;1.90;99.90;;;;;;5025669;28;20025;-74
2023/03/01 07:51:48;;;;;;;4.87;3.67;;;2.00;99.90;;;;;;5026563;28;20037;-77
2023/03/01 07:54:14;;;;;;;6.03;3.10;;;2.10;99.90;;;;;;5025579;28;21874;-76
2023/03/01 07:56:41;;;;;;;5.30;2.93;;;2.20;99.90;;;;;;5026184;28;20044;-75
2023/03/01 07:59:07;;;;;;;5.07;3.07;;;2.30;99.90;;;;;;5022088;28;20037;-76
2023/03/01 08:01:33;;;;;;;5.60;3.40;;;2.40;99.90;;;;;;5025603;28;20048;-73
2023/03/01 08:04:00;;;;;;;6.67;3.80;;;2.50;99.90;;;;;;5026892;28;20810;-73
2023/03/01 08:06:26;;;;;;;6.80;4.43;;;2.50;99.90;;;;;;5028664;28;20036;-75
2023/03/01 08:08:55;;;;;;;7.00;3.17;;;2.60;99.90;;;;;;5026457;28;20033;-72
2023/03/01 08:11:21;;;;;;;5.70;3.53;;;2.70;99.90;;;;;;5030950;28;20037;-77
2023/03/01 08:13:48;;;;;;;8.63;3.57;;;2.70;99.90;;;;;;5028318;28;20029;-77
2023/03/01 08:16:15;;;;;;;7.60;3.43;;;2.80;99.90;;;;;;5032979;28;20052;-77
2023/03/01 08:18:42;;;;;;;5.70;3.00;;;2.80;99.90;;;;;;5027085;28;20029;-76
2023/03/01 08:21:15;;;;;;;6.73;3.03;;;2.90;99.90;;;;;;5029669;28;20029;-76
2023/03/01 08:23:42;;;;;;;6.93;3.23;;;2.90;99.90;;;;;;5011935;28;20063;-72
2023/03/01 08:26:13;;;;;;;7.03;4.13;;;3.00;99.90;;;;;;5015446;28;20992;-74
2023/03/01 08:28:40;;;;;;;6.10;3.40;;;3.10;99.90;;;;;;5027003;28;20041;-76
2023/03/01 08:31:17;;;;;;;7.00;4.40;;;3.10;99.90;;;;;;5027342;28;20492;-75
2023/03/01 08:33:44;;;;;;;5.73;3.50;;;3.20;99.90;;;;;;4997184;28;20056;-74
2023/03/01 08:36:10;;;;;;;6.50;3.67;;;3.30;99.90;;;;;;5015419;28;20040;-75
2023/03/01 08:38:37;;;;;;;6.03;3.43;;;3.40;99.90;;;;;;5010592;28;20055;-74
2023/03/01 08:41:03;;;;;;;8.87;3.33;;;3.40;99.90;;;;;;5028172;28;20415;-75
2023/03/01 08:43:30;;;;;;;5.53;3.37;;;3.50;99.90;;;;;;5028163;28;20395;-73
2023/03/01 08:45:56;;;;;;;7.53;3.30;;;3.50;99.90;;;;;;5033401;28;20033;-76
2023/03/01 08:48:23;;;;;;;5.50;3.07;;;3.60;99.90;;;;;;5027228;28;20036;-71
2023/03/01 08:50:49;;;;;;;6.50;3.57;;;3.70;99.90;;;;;;5029558;28;20033;-75
2023/03/01 08:53:15;;;;;;;7.20;3.67;;;3.80;99.90;;;;;;5026975;28;20431;-75
2023/03/01 08:55:42;;;;;;;5.70;3.03;;;3.90;99.90;;;;;;5016260;28;20029;-74
2023/03/01 08:58:08;;;;;;;6.20;3.37;;;4.00;99.90;;;;;;5028551;28;20029;-74
2023/03/01 09:00:34;;;;;;;5.17;2.80;;;4.10;99.90;;;;;;5032005;28;20036;-71
2023/03/01 09:03:01;;;;;;;5.80;2.70;;;4.10;99.90;;;;;;5028211;28;20052;-76
2023/03/01 09:05:27;;;;;;;5.33;2.30;;;4.20;99.90;;;;;;5031270;28;20420;-78
2023/03/01 09:07:54;;;;;;;6.70;3.17;;;4.20;99.90;;;;;;5029381;28;20048;-73
2023/03/01 09:10:20;;;;;;;4.20;2.23;;;4.30;99.90;;;;;;5028320;28;20039;-76
2023/03/01 09:12:46;;;;;;;4.73;2.70;;;4.30;99.90;;;;;;5011414;28;20578;-74
2023/03/01 09:15:12;;;;;;;4.50;2.73;;;4.40;99.90;;;;;;5029446;28;20048;-77
2023/03/01 09:17:39;;;;;;;4.67;2.20;;;4.50;99.90;;;;;;5028884;28;20043;-73
2023/03/01 09:20:05;;;;;;;4.63;2.53;;;4.70;99.90;;;;;;5028207;28;20051;-73
2023/03/01 09:22:34;;;;;;;6.80;3.00;;;4.80;99.90;;;;;;5027639;28;20048;-74
2023/03/01 09:25:01;;;;;;;5.03;2.37;;;4.80;99.90;;;;;;5014368;28;20028;-78
2023/03/01 09:27:27;;;;;;;5.27;2.67;;;4.90;99.90;;;;;;5017201;28;20407;-73
2023/03/01 09:29:56;;;;;;;5.50;3.00;;;4.90;99.90;;;;;;5026025;28;20467;-74
2023/03/01 09:32:22;;;;;;;6.27;3.10;;;5.00;99.30;;;;;;5027256;28;20033;-78
2023/03/01 09:35:03;;;;;;;6.77;3.47;;;5.00;98.80;;;;;;5027024;28;20468;-77
2023/03/01 09:37:29;;;;;;;9.17;4.93;;;5.00;98.60;;;;;;5029620;28;21086;-75
2023/03/01 09:39:56;;;;;;;6.60;4.17;;;5.10;97.80;;;;;;5010716;28;20033;-75
2023/03/01 09:42:22;;;;;;;7.10;3.33;;;5.10;97.20;;;;;;5012432;28;20044;-78
2023/03/01 09:44:57;;;;;;;6.33;4.07;;;5.10;97.50;;;;;;5028011;28;21004;-76
2023/03/01 09:47:30;;;;;;;10.87;7.83;;;5.10;97.80;;;;;;5029828;28;20041;-77
2023/03/01 09:49:59;;;;;;;8.63;5.32;;;5.20;97.20;;;;;;5022730;28;20491;-74
2023/03/01 09:52:58;;;;;;;7.40;4.63;;;5.30;97.30;;;;;;5013682;28;20405;-74
2023/03/01 09:55:39;;;;;;;8.57;5.17;;;5.30;96.80;;;;;;5000953;28;20049;-75
2023/03/01 09:58:31;;;;;;;7.83;5.60;;;5.40;96.90;;;;;;5009791;28;20048;-76
2023/03/01 10:01:06;;;;;;;10.13;6.45;;;5.50;96.70;;;;;;5025926;28;20036;-76
2023/03/01 10:03:45;;;;;;;10.27;6.80;;;5.50;96.20;;;;;;5030125;28;20472;-76
2023/03/01 10:06:15;;;;;;;10.70;7.70;;;5.50;95.40;;;;;;5032024;28;20033;-71
2023/03/01 10:08:53;;;;;;;10.17;6.87;;;5.50;95.60;;;;;;5008923;28;20033;-74
2023/03/01 10:11:22;;;;;;;9.57;6.67;;;5.50;95.50;;;;;;5026609;28;20028;-73
2023/03/01 10:14:03;;;;;;;7.17;5.17;;;5.50;95.50;;;;;;4994402;28;20048;-74
2023/03/01 10:16:49;;;;;;;8.20;5.53;;;5.60;95.50;;;;;;5045925;28;20041;-76
2023/03/01 10:19:24;;;;;;;8.83;5.27;;;5.80;95.30;;;;;;5027532;28;20044;-75
2023/03/01 10:21:51;;;;;;;8.33;4.63;;;6.00;94.70;;;;;;5031737;28;20041;-76
2023/03/01 10:24:21;;;;;;;5.43;3.50;;;6.20;94.70;;;;;;5028329;28;20510;-75
2023/03/01 10:26:55;;;;;;;6.80;3.17;;;6.50;94.70;;;;;;5028296;28;20044;-74
2023/03/01 10:29:39;;;;;;;9.13;3.92;;;6.80;94.10;;;;;;5027011;28;20025;-77
2023/03/01 10:32:08;;;;;;;5.35;3.30;;;7.00;93.10;;;;;;5027601;28;20043;-72
2023/03/01 10:34:36;;;;;;;6.60;3.83;;;7.20;93.50;;;;;;5026244;28;20047;-78
2023/03/01 10:37:21;;;;;;;5.25;3.28;;;7.50;92.90;;;;;;5030946;28;20033;-77
2023/03/01 10:40:06;;;;;;;6.03;3.35;;;7.80;92.50;;;;;;5026473;28;20043;-77
2023/03/01 10:42:54;;;;;;;5.45;3.08;;;8.00;92.30;;;;;;5027592;28;20040;-75
2023/03/01 10:45:29;;;;;;;6.25;3.45;;;8.50;92.00;;;;;;5027414;28;20029;-74
2023/03/01 10:48:12;;;;;;;4.75;2.45;;;8.90;91.10;;;;;;5027435;28;20037;-77
2023/03/01 10:50:39;;;;;;;4.95;2.70;;;9.20;90.00;;;;;;5007772;28;20028;-72
2023/03/01 10:53:26;;;;;;;4.28;2.70;;;9.40;88.90;;;;;;5009669;28;20502;-72
2023/03/01 10:55:59;;;;;;;5.25;2.75;;;9.60;87.70;;;;;;5032847;28;20067;-73
2023/03/01 10:58:25;;;;;;;7.03;2.97;;;9.90;86.20;;;;;;5009524;28;20041;-78
2023/03/01 11:00:57;;;;;;;9.38;5.45;;;10.10;84.10;;;;;;5026408;28;20029;-76
2023/03/01 11:03:25;;;;;;;6.05;3.60;;;10.40;84.00;;;;;;5026563;28;20539;-79
2023/03/01 11:05:55;;;;;;;5.13;3.00;;;10.80;82.90;;;;;;5030128;28;20036;-77
2023/03/01 11:08:34;;;;;;;3.88;2.90;;;11.20;80.80;;;;;;5028342;28;20029;-75
2023/03/01 11:11:12;;;;;;;4.38;2.42;;;11.30;77.50;;;;;;5008103;28;20036;-75
2023/03/01 11:13:56;;;;;;;4.25;2.70;;;11.20;76.60;;;;;;5009117;28;20040;-77
2023/03/01 11:16:28;;;;;;;4.10;2.88;;;11.30;75.20;;;;;;5027407;28;20064;-76
2023/03/01 11:19:10;;;;;;;7.93;3.90;;;11.30;74.40;;;;;;5026117;28;20119;-78
2023/03/01 11:22:00;;;;;;;5.47;3.10;;;11.30;72.70;;;;;;5009259;28;20044;-75
2023/03/01 11:24:46;;;;;;;6.10;2.90;;;11.20;73.40;;;;;;5019471;28;20060;-77
2023/03/01 11:27:44;;;;;;;4.75;2.20;;;11.20;73.10;;;;;;5029037;28;20488;-77
2023/03/01 11:30:26;;;;;;;4.70;2.50;;;11.20;74.20;;;;;;4996181;28;20037;-77
2023/03/01 11:32:57;;;;;;;6.28;3.03;;;11.10;71.20;;;;;;5027591;28;20075;-76
2023/03/01 11:35:26;;;;;;;6.95;2.65;;;10.40;70.50;;;;;;5010681;28;20404;-74
2023/03/01 11:38:14;;;;;;;5.10;2.63;;;9.70;70.90;;;;;;5006941;28;20029;-76
2023/03/01 11:41:14;;;;;;;5.60;2.95;;;9.00;72.40;;;;;;5008698;28;20044;-75
2023/03/01 11:44:03;;;;;;;4.93;2.63;;;8.80;72.90;;;;;;5025174;28;20897;-77
2023/03/01 11:46:32;;;;;;;4.88;2.80;;;8.40;74.10;;;;;;5009247;28;20071;-76
2023/03/01 11:49:29;;;;;;;5.47;2.92;;;7.90;74.40;;;;;;5028400;28;20048;-73
2023/03/01 11:52:09;;;;;;;5.35;2.97;;;7.60;75.80;;;;;;5033055;28;20060;-75
2023/03/01 11:54:57;;;;;;;5.50;3.60;;;7.50;76.40;;;;;;5024870;28;20514;-75
2023/03/01 11:58:03;;;;;;;5.13;3.35;;;7.30;76.40;;;;;;5029952;28;20504;-76
2023/03/01 12:00:41;;;;;;;4.35;2.80;;;7.10;77.00;;;;;;5028794;28;20044;-73
2023/03/01 12:03:35;;;;;;;6.25;2.75;;;7.00;77.70;;;;;;5029212;28;21193;-75
2023/03/01 12:06:40;;;;;;;7.80;2.95;;;7.00;78.40;;;;;;5030359;28;20051;-75
2023/03/01 12:09:45;;;;;;;5.50;3.78;;;7.00;78.00;;;;;;5009510;28;20041;-72
2023/03/01 12:12:49;;;;;;;6.63;3.85;;;7.10;78.50;;;;;;5011543;28;20045;-78
2023/03/01 12:15:51;;;;;;;7.70;3.38;;;7.70;78.10;;;;;;5026492;28;20053;-78
2023/03/01 12:18:33;;;;;;;5.10;3.30;;;8.90;77.60;;;;;;5013154;28;20032;-78
2023/03/01 12:21:08;;;;;;;4.63;2.88;;;10.00;75.90;;;;;;5007902;28;20037;-77
2023/03/01 12:23:59;;;;;;;5.25;3.45;;;11.00;72.60;;;;;;5027076;28;20033;-72
2023/03/01 12:26:57;;;;;;;5.63;3.42;;;11.60;70.50;;;;;;5032933;28;21100;-72
2023/03/01 12:29:44;;;;;;;4.97;2.95;;;12.10;68.90;;;;;;5026008;28;20041;-73
2023/03/01 12:32:15;;;;;;;4.55;3.00;;;12.70;69.60;;;;;;5019284;28;20052;-79
2023/03/01 12:34:49;;;;;;;5.35;3.60;;;13.40;67.80;;;;;;5029281;28;20507;-79
2023/03/01 12:37:24;;;;;;;4.55;2.90;;;13.80;63.70;;;;;;5015519;28;20750;-72
2023/03/01 12:40:03;;;;;;;4.53;3.00;;;14.10;63.10;;;;;;5030411;28;20036;-74
2023/03/01 12:42:57;;;;;;;7.15;2.70;;;14.40;62.50;;;;;;5029625;28;20480;-79
2023/03/01 12:45:48;;;;;;;4.63;2.65;;;14.80;61.40;;;;;;5026967;28;21532;-77
2023/03/01 12:48:30;;;;;;;3.78;2.60;;;15.10;59.50;;;;;;5013646;28;20048;-78
2023/03/01 12:51:02;;;;;;;4.95;2.70;;;15.30;58.40;;;;;;5030754;28;21696;-77
2023/03/01 12:53:46;;;;;;;4.20;2.58;;;15.60;57.90;;;;;;5030274;28;20025;-77
2023/03/01 12:56:18;;;;;;;5.82;2.30;;;15.90;56.40;;;;;;5029834;28;20484;-73
2023/03/01 12:59:12;;;;;;;3.83;2.35;;;16.00;56.40;;;;;;5027854;28;20037;-75
2023/03/01 13:01:54;;;;;;;3.97;2.40;;;16.30;55.20;;;;;;5030144;28;20036;-75
2023/03/01 13:04:32;;;;;;;3.15;2.30;;;16.50;54.30;;;;;;5011348;28;20044;-78
2023/03/01 13:07:25;;;;;;;5.20;2.80;;;16.50;53.10;;;;;;5030079;28;20491;-76
2023/03/01 13:10:14;;;;;;;3.95;2.30;;;16.60;53.20;;;;;;5043613;28;20059;-73
2023/03/01 13:12:53;;;;;;;3.92;2.42;;;16.60;51.50;;;;;;5027131;28;20049;-78
2023/03/01 13:15:22;;;;;;;4.30;1.92;;;16.30;52.10;;;;;;5029835;28;20061;-77